Terminal Aerodrome Forecast
Issued by NWS

Home | Current Version | Previous Version | Text Only | Print | Product List | Glossary On
Versions: 1 2 3 4 5 6 7 8 9 10 11 12 13 14 15 16 17 18 19 20 21 22 23 24 25 26 27 28 29 30 31 32 33 34
000
FTAK31 PANC 100528
TAFAEN
TAF
PAEN 100528Z 1006/1106 34007KT 6SM -RA BKN015 OVC070
      TEMPO 1006/1010 P6SM NSW SCT015 OVC070
     FM101200 02015KT 6SM -RA BR OVC015 WS020/09030KT
     FM110000 03015KT 6SM -RA BR OVC025=

USA.gov is the U.S. government's official web portal to all federal, state and local government web resources and services.